Arlington Heights, IL

8:26 AM CST on November 23, 2014 (GMT -0600)
Arlington Heights Historical District | Change Station
CLOSE
Current Station
Personal Weather Station
Location: Arlington Heights, IL
Elevation: 722 ft
Nearby Weather Stations

Elev 722 ft 42.09 °N, 87.99 °W | Updated 24 seconds ago

Overcast
Overcast
48.6 °F
Feels Like 49 °F
N
0.0
Wind Variable Wind from East
Gusts 0.0 mph

Today
High -- | Low -- °F
--% Chance of Precip.
Yesterday
High -- | Low -- °F
Precip. -- in
6:51 AM 4:24 PM
New Moon, 1% visible
Pressure 29.78 in
Visibility 4.0 miles
Clouds Mostly Cloudy 3000 ft
Overcast 3600 ft
Windchill 49 °F
Dew Point 46 °F
Humidity 90%
Rainfall 0.00 in
Snow Depth Not available.
UV 0 out of 12
Pollen .10 out of 12
Air Quality Not available.
Flu Activity Not available.
METAR KPWK 231352Z 18008G18KT 4SM -RA BR BKN030 OVC036 09/07 A2977 RMK AO2 RAB31 SLP082 P0001 T00890067

More Conditions Fewer Conditions

Pressure 29.78 in
Visibility 4.0 miles
Clouds Mostly Cloudy 3000 ft
Overcast 3600 ft
Windchill 49 °F
Dew Point 46 °F
Humidity 90%
Rainfall 0.00 in
Snow Depth Not available.
UV 0 out of 12
Pollen .10 out of 12
Air Quality Not available.
Flu Activity Not available.
METAR KPWK 231352Z 18008G18KT 4SM -RA BR BKN030 OVC036 09/07 A2977 RMK AO2 RAB31 SLP082 P0001 T00890067

More Conditions Fewer Conditions

10-Day Weather Forecast

Almanac

Astronomy

Nov. 23, 2014 Rise Set
Actual Time
Civil Twilight
Nautical Twilight
Astronomical Twilight
Moon
Length of Visible Light
Length of Day
Tomorrow will be .
, % of the Moon is Illuminated

Today's Extremes

State Highs State Lows

Community

WunderPhotos

Upload Photos

1,773,073 photos uploaded!

WunderBlogs® & News

Nearby

Air Quality

  Air Quality AQ Index Pollutant
Not available.

Snow Depth

Station Depth Elevation

Earthquake Activity

City Distance Mag. Time & Date
Minimum magnitude displayed is 2.5.

Coastal Water Temperatures

Place Temperature

Nearby Weather Stations